Time;durP1;ratioP1;P1;durP2;ratioP2;P2;SDS_P1;SDS_P2;PMS_P1;PMS_P2;Temp;Humidity;BMP_temperature;BMP_pressure;BME280_temperature;BME280_humidity;BME280_pressure;Samples;Min_cycle;Max_cycle;Signal;HPM_P1;HPM_P2
2022/01/16 00:00:18;;;;;;;35.33;17.10;;;;;;;;;;5049887;28;20044;-71
2022/01/16 00:05:23;;;;;;;37.33;16.75;;;;;;;;;;5050512;28;20044;-71
2022/01/16 00:07:49;;;;;;;30.48;14.50;;;;;;;;;;5048778;28;20045;-71
2022/01/16 00:10:17;;;;;;;32.85;15.27;;;;;;;;;;5049385;28;20370;-71
2022/01/16 00:12:48;;;;;;;39.25;17.02;;;;;;;;;;5049306;28;20037;-71
2022/01/16 00:15:21;;;;;;;39.78;17.48;;;;;;;;;;5040094;28;20041;-71
2022/01/16 00:20:21;;;;;;;35.80;15.88;;;;;;;;;;5029164;28;20069;-71
2022/01/16 00:22:48;;;;;;;33.58;15.15;;;;;;;;;;5028740;28;20053;-72
2022/01/16 00:25:15;;;;;;;33.28;15.48;;;;;;;;;;5029775;28;20501;-71
2022/01/16 00:27:42;;;;;;;32.80;14.88;;;;;;;;;;5028783;28;20060;-71
2022/01/16 00:30:11;;;;;;;38.45;15.70;;;;;;;;;;5028797;28;20623;-71
2022/01/16 00:32:37;;;;;;;34.60;15.98;;;;;;;;;;5030623;28;20052;-71
2022/01/16 00:35:03;;;;;;;40.83;16.83;;;;;;;;;;5068251;28;20099;-71
2022/01/16 00:37:29;;;;;;;46.10;18.38;;;;;;;;;;5043700;28;20037;-71
2022/01/16 00:39:55;;;;;;;38.58;15.90;;;;;;;;;;5028497;28;20068;-71
2022/01/16 00:42:21;;;;;;;38.42;16.08;;;;;;;;;;5028515;28;20084;-71
2022/01/16 00:44:46;;;;;;;42.65;16.95;;;;;;;;;;5030217;28;20065;-71
2022/01/16 00:47:12;;;;;;;44.50;17.30;;;;;;;;;;5048268;28;20084;-71
2022/01/16 00:49:39;;;;;;;47.13;17.33;;;;;;;;;;5050673;28;20041;-71
2022/01/16 00:52:06;;;;;;;44.45;17.27;;;;;;;;;;5050121;28;20378;-71
2022/01/16 00:54:32;;;;;;;48.22;17.58;;;;;;;;;;5050557;28;20060;-71
2022/01/16 00:56:58;;;;;;;41.65;16.55;;;;;;;;;;5050585;28;20144;-71
2022/01/16 00:59:24;;;;;;;48.30;18.25;;;;;;;;;;5050078;28;20052;-71
2022/01/16 01:01:50;;;;;;;45.83;17.38;;;;;;;;;;5050486;28;20037;-71
2022/01/16 01:04:16;;;;;;;46.58;18.15;;;;;;;;;;5049039;28;20075;-71
2022/01/16 01:06:42;;;;;;;53.85;19.17;;;;;;;;;;5049582;28;20443;-71
2022/01/16 01:09:08;;;;;;;49.58;19.20;;;;;;;;;;5048504;28;20080;-71
2022/01/16 01:11:36;;;;;;;57.92;19.83;;;;;;;;;;5048391;28;20690;-71
2022/01/16 01:16:49;;;;;;;65.97;21.33;;;;;;;;;;5048057;28;20033;-71
2022/01/16 01:19:16;;;;;;;63.45;22.63;;;;;;;;;;5047329;28;20481;-71
2022/01/16 01:21:42;;;;;;;64.57;20.63;;;;;;;;;;5047751;28;20052;-71
2022/01/16 01:24:08;;;;;;;65.97;22.45;;;;;;;;;;5047610;28;20053;-71
2022/01/16 01:26:41;;;;;;;80.03;22.83;;;;;;;;;;5048085;28;20521;-71
2022/01/16 01:29:07;;;;;;;74.00;22.73;;;;;;;;;;5049360;28;20551;-71
2022/01/16 01:31:33;;;;;;;70.32;21.80;;;;;;;;;;5048394;28;20041;-71
2022/01/16 01:33:59;;;;;;;68.93;21.85;;;;;;;;;;5059876;28;20163;-71
2022/01/16 01:36:25;;;;;;;55.17;19.90;;;;;;;;;;5066970;28;20052;-71
2022/01/16 01:38:51;;;;;;;51.67;18.55;;;;;;;;;;5067156;28;20072;-71
2022/01/16 01:41:19;;;;;;;47.30;18.27;;;;;;;;;;5067097;28;20120;-71
2022/01/16 01:51:59;;;;;;;43.45;17.08;;;;;;;;;;5069124;28;20044;-71
2022/01/16 01:54:26;;;;;;;40.13;15.50;;;;;;;;;;5068770;28;20040;-71
2022/01/16 01:56:52;;;;;;;39.47;16.45;;;;;;;;;;5068218;28;20059;-70
2022/01/16 01:59:18;;;;;;;43.53;16.65;;;;;;;;;;5067332;28;20051;-71
2022/01/16 02:01:44;;;;;;;44.50;17.38;;;;;;;;;;5067822;28;20137;-71
2022/01/16 02:04:10;;;;;;;42.55;16.83;;;;;;;;;;5049743;28;20080;-71
2022/01/16 02:06:36;;;;;;;43.63;16.75;;;;;;;;;;5058721;28;20048;-70
2022/01/16 02:09:06;;;;;;;40.70;17.02;;;;;;;;;;5047002;28;20451;-70
2022/01/16 02:11:33;;;;;;;33.27;15.43;;;;;;;;;;5047094;28;20044;-70
2022/01/16 02:14:23;;;;;;;39.35;15.52;;;;;;;;;;5047391;28;20056;-71
2022/01/16 02:28:35;;;;;;;34.00;14.32;;;;;;;;;;5051353;28;20061;-70
2022/01/16 02:36:12;;;;;;;27.20;12.68;;;;;;;;;;5071330;28;20028;-70
2022/01/16 02:38:38;;;;;;;28.90;12.95;;;;;;;;;;5068543;28;20048;-70
2022/01/16 02:41:05;;;;;;;33.67;14.55;;;;;;;;;;5067722;28;20047;-71
2022/01/16 02:43:34;;;;;;;28.63;13.20;;;;;;;;;;5067215;28;20053;-70
2022/01/16 02:46:37;;;;;;;33.15;13.68;;;;;;;;;;5066951;28;20059;-71
2022/01/16 02:48:56;;;;;;;29.15;13.43;;;;;;;;;;5067645;28;20614;-71
2022/01/16 02:51:26;;;;;;;28.60;13.27;;;;;;;;;;5067345;28;20055;-70
2022/01/16 02:53:52;;;;;;;31.08;13.20;;;;;;;;;;5067754;28;20059;-70
2022/01/16 02:56:19;;;;;;;29.95;13.02;;;;;;;;;;5067216;28;20123;-70
2022/01/16 02:58:46;;;;;;;30.38;13.38;;;;;;;;;;5066999;28;20047;-71
2022/01/16 03:01:13;;;;;;;34.05;14.07;;;;;;;;;;5066493;28;20048;-70
2022/01/16 03:03:40;;;;;;;30.65;13.45;;;;;;;;;;5066609;28;20083;-71
2022/01/16 03:06:06;;;;;;;29.77;12.70;;;;;;;;;;5049139;28;20505;-71
2022/01/16 03:08:32;;;;;;;30.80;14.50;;;;;;;;;;5066121;28;20057;-70
2022/01/16 03:11:12;;;;;;;26.95;11.50;;;;;;;;;;5064112;28;20067;-70
2022/01/16 03:13:47;;;;;;;26.17;11.90;;;;;;;;;;5066337;28;20068;-70
2022/01/16 03:16:15;;;;;;;26.80;11.85;;;;;;;;;;5066307;28;20466;-70
2022/01/16 03:24:09;;;;;;;26.02;12.10;;;;;;;;;;5072169;28;20045;-70
2022/01/16 03:26:35;;;;;;;27.10;12.68;;;;;;;;;;5069105;28;20120;-70
2022/01/16 03:29:01;;;;;;;27.83;13.00;;;;;;;;;;5069071;28;20064;-70
2022/01/16 03:31:27;;;;;;;22.80;11.82;;;;;;;;;;5069099;28;20040;-70
2022/01/16 03:33:53;;;;;;;27.05;12.52;;;;;;;;;;5056844;28;20081;-70
2022/01/16 03:36:18;;;;;;;25.65;12.52;;;;;;;;;;5049336;28;20059;-70
2022/01/16 03:38:44;;;;;;;29.45;13.63;;;;;;;;;;5050902;28;20478;-70
2022/01/16 03:41:10;;;;;;;30.77;13.57;;;;;;;;;;5051026;28;20080;-70
2022/01/16 03:43:36;;;;;;;30.65;13.75;;;;;;;;;;5050844;28;20119;-71
2022/01/16 03:46:03;;;;;;;31.17;13.95;;;;;;;;;;5050598;28;20053;-70
2022/01/16 03:48:29;;;;;;;30.35;14.15;;;;;;;;;;5050543;28;20048;-71
2022/01/16 03:50:55;;;;;;;31.27;14.82;;;;;;;;;;5050769;28;20452;-71
2022/01/16 03:53:21;;;;;;;36.35;15.60;;;;;;;;;;5050833;28;20402;-70
2022/01/16 03:55:48;;;;;;;30.55;14.85;;;;;;;;;;5050712;28;20041;-70
2022/01/16 03:58:17;;;;;;;30.83;14.55;;;;;;;;;;5049841;28;20478;-71
2022/01/16 04:00:44;;;;;;;35.15;15.05;;;;;;;;;;5049843;28;20047;-70
2022/01/16 04:03:11;;;;;;;31.25;13.02;;;;;;;;;;5049816;28;20216;-70
2022/01/16 04:05:43;;;;;;;32.03;13.77;;;;;;;;;;5050102;28;20040;-70
2022/01/16 04:08:09;;;;;;;28.80;12.80;;;;;;;;;;5050031;28;20048;-70
2022/01/16 04:10:35;;;;;;;30.02;13.90;;;;;;;;;;5050012;28;20053;-70
2022/01/16 04:13:03;;;;;;;31.95;14.23;;;;;;;;;;5050298;28;20036;-71
2022/01/16 04:15:32;;;;;;;28.40;12.93;;;;;;;;;;5049629;28;20041;-71
2022/01/16 04:18:00;;;;;;;27.25;13.60;;;;;;;;;;5049285;28;20081;-71
2022/01/16 04:20:26;;;;;;;30.70;14.73;;;;;;;;;;5031562;28;20056;-71
2022/01/16 04:22:52;;;;;;;31.40;13.38;;;;;;;;;;5048951;28;20394;-70
2022/01/16 04:25:19;;;;;;;29.08;13.68;;;;;;;;;;5049081;28;20070;-70
2022/01/16 04:27:45;;;;;;;30.77;12.93;;;;;;;;;;5049102;28;20049;-71
2022/01/16 04:30:11;;;;;;;26.48;12.32;;;;;;;;;;5048923;28;20109;-70
2022/01/16 04:32:40;;;;;;;28.95;12.60;;;;;;;;;;5050808;28;20029;-71
2022/01/16 04:35:07;;;;;;;26.15;12.02;;;;;;;;;;5069494;28;20040;-71
2022/01/16 04:37:33;;;;;;;27.77;11.65;;;;;;;;;;5069325;28;20044;-70
2022/01/16 04:40:01;;;;;;;23.38;11.20;;;;;;;;;;5069254;28;20053;-70
2022/01/16 04:45:12;;;;;;;23.92;11.10;;;;;;;;;;5071903;28;20040;-70
2022/01/16 04:47:40;;;;;;;24.15;11.63;;;;;;;;;;5069634;28;20247;-70
2022/01/16 04:50:07;;;;;;;24.90;11.85;;;;;;;;;;5069518;28;20071;-70
2022/01/16 04:52:33;;;;;;;24.05;11.07;;;;;;;;;;5069280;28;20032;-70
2022/01/16 04:54:59;;;;;;;22.60;11.25;;;;;;;;;;5068564;28;20048;-70
2022/01/16 04:57:25;;;;;;;22.52;11.40;;;;;;;;;;5068432;28;20122;-71
2022/01/16 05:35:37;;;;;;;20.60;10.70;;;;;;;;;;5068796;23;20046;-77
2022/01/16 05:38:03;;;;;;;24.75;12.13;;;;;;;;;;5021041;28;20461;-77
2022/01/16 05:40:29;;;;;;;22.48;11.18;;;;;;;;;;5038362;28;20033;-77
2022/01/16 05:42:56;;;;;;;22.10;11.10;;;;;;;;;;5043281;28;20049;-77
2022/01/16 05:45:23;;;;;;;21.67;10.65;;;;;;;;;;5061963;28;20029;-77
2022/01/16 05:47:48;;;;;;;23.25;11.07;;;;;;;;;;5061471;28;20045;-77
2022/01/16 05:50:14;;;;;;;23.83;11.90;;;;;;;;;;5061341;28;20060;-77
2022/01/16 05:52:41;;;;;;;22.05;11.10;;;;;;;;;;5061861;28;20116;-77
2022/01/16 05:55:08;;;;;;;21.83;10.13;;;;;;;;;;5061654;28;20040;-78
2022/01/16 05:57:33;;;;;;;17.23;9.50;;;;;;;;;;5049347;28;20060;-77
2022/01/16 05:59:59;;;;;;;15.95;8.65;;;;;;;;;;5035474;28;20443;-78
2022/01/16 06:02:26;;;;;;;16.85;8.93;;;;;;;;;;5057928;28;20068;-77
2022/01/16 06:04:52;;;;;;;15.45;8.35;;;;;;;;;;5059279;28;20041;-78
2022/01/16 06:07:18;;;;;;;12.75;6.88;;;;;;;;;;5059685;28;20052;-77
2022/01/16 06:09:44;;;;;;;13.32;7.10;;;;;;;;;;5061597;28;20056;-77
2022/01/16 06:12:11;;;;;;;11.98;6.75;;;;;;;;;;5061543;28;20064;-77
2022/01/16 06:14:37;;;;;;;13.40;6.70;;;;;;;;;;5058653;28;20057;-78
2022/01/16 06:17:03;;;;;;;10.80;6.07;;;;;;;;;;5061123;28;20041;-77
2022/01/16 06:19:29;;;;;;;10.52;6.25;;;;;;;;;;5059412;28;20071;-77
2022/01/16 06:21:55;;;;;;;10.48;6.25;;;;;;;;;;5057425;28;20107;-77
2022/01/16 06:24:21;;;;;;;10.90;6.22;;;;;;;;;;5060919;28;20066;-77
2022/01/16 06:26:49;;;;;;;13.95;7.22;;;;;;;;;;5061343;28;20049;-77
2022/01/16 06:29:18;;;;;;;13.18;6.78;;;;;;;;;;5061213;28;20128;-76
2022/01/16 06:31:44;;;;;;;12.00;6.63;;;;;;;;;;5061704;28;20033;-77
2022/01/16 06:34:11;;;;;;;12.90;7.30;;;;;;;;;;5036786;28;20632;-76
2022/01/16 06:36:38;;;;;;;12.73;6.97;;;;;;;;;;5002621;28;20057;-77
2022/01/16 06:39:06;;;;;;;13.35;7.65;;;;;;;;;;5027782;28;20485;-77
2022/01/16 06:41:33;;;;;;;13.25;7.40;;;;;;;;;;5026107;28;20652;-76
2022/01/16 06:43:59;;;;;;;14.15;7.68;;;;;;;;;;5026628;28;20509;-77
2022/01/16 06:46:26;;;;;;;13.57;8.15;;;;;;;;;;5009677;28;20049;-77
2022/01/16 06:48:52;;;;;;;14.02;7.97;;;;;;;;;;5025954;28;20624;-78
2022/01/16 06:51:19;;;;;;;14.85;7.93;;;;;;;;;;5027289;28;20045;-77
2022/01/16 06:53:50;;;;;;;15.65;9.15;;;;;;;;;;5027278;28;20064;-77
2022/01/16 06:56:17;;;;;;;16.17;8.35;;;;;;;;;;5024295;28;20045;-78
2022/01/16 06:58:43;;;;;;;14.43;7.95;;;;;;;;;;5024417;28;20045;-78
2022/01/16 07:01:10;;;;;;;16.02;9.15;;;;;;;;;;5025209;28;20447;-77
2022/01/16 07:03:37;;;;;;;18.23;9.98;;;;;;;;;;5024562;28;20422;-77
2022/01/16 07:06:03;;;;;;;17.20;10.30;;;;;;;;;;5006950;28;20517;-76
2022/01/16 07:08:30;;;;;;;19.38;10.73;;;;;;;;;;5026452;28;20050;-77
2022/01/16 07:10:57;;;;;;;19.48;9.90;;;;;;;;;;5011453;28;20048;-78
2022/01/16 07:13:24;;;;;;;18.05;10.02;;;;;;;;;;5026656;28;20053;-77
2022/01/16 07:15:50;;;;;;;23.13;12.23;;;;;;;;;;5002216;28;20048;-76
2022/01/16 07:18:17;;;;;;;22.35;11.98;;;;;;;;;;5006242;28;20100;-76
2022/01/16 07:20:43;;;;;;;19.95;11.70;;;;;;;;;;4999760;28;20046;-76
2022/01/16 07:23:11;;;;;;;18.63;10.88;;;;;;;;;;4996227;28;20030;-78
2022/01/16 07:25:37;;;;;;;20.42;11.05;;;;;;;;;;5013703;28;20513;-76
2022/01/16 07:28:03;;;;;;;21.90;12.35;;;;;;;;;;5009449;28;20489;-76
2022/01/16 07:30:29;;;;;;;23.98;12.90;;;;;;;;;;5005796;28;20463;-76
2022/01/16 07:32:55;;;;;;;24.50;12.88;;;;;;;;;;5026968;28;20060;-77
2022/01/16 07:35:21;;;;;;;23.40;11.95;;;;;;;;;;4992828;28;20048;-78
2022/01/16 07:37:47;;;;;;;26.50;13.45;;;;;;;;;;4998659;28;20149;-77
2022/01/16 07:40:14;;;;;;;23.42;12.23;;;;;;;;;;4981139;28;20050;-78
2022/01/16 07:42:40;;;;;;;23.67;12.02;;;;;;;;;;5006274;28;20076;-77
2022/01/16 07:45:06;;;;;;;24.33;12.27;;;;;;;;;;5003647;28;20893;-80
2022/01/16 07:47:32;;;;;;;22.05;11.30;;;;;;;;;;4985037;28;20069;-77
2022/01/16 07:49:58;;;;;;;22.75;11.10;;;;;;;;;;5009094;28;20691;-77
2022/01/16 07:52:24;;;;;;;24.92;11.50;;;;;;;;;;5004702;28;20082;-77
2022/01/16 07:54:50;;;;;;;25.92;12.27;;;;;;;;;;5020444;28;20053;-74
2022/01/16 07:57:16;;;;;;;25.05;12.02;;;;;;;;;;5014049;28;20533;-76
2022/01/16 07:59:42;;;;;;;23.63;12.40;;;;;;;;;;5004133;28;20041;-76
2022/01/16 08:02:08;;;;;;;23.33;12.55;;;;;;;;;;5010948;28;20049;-75
2022/01/16 08:04:34;;;;;;;23.73;12.82;;;;;;;;;;5024286;28;20037;-75
2022/01/16 08:07:00;;;;;;;30.45;14.10;;;;;;;;;;5026034;28;20049;-76
2022/01/16 08:09:26;;;;;;;25.23;13.32;;;;;;;;;;5024456;28;20049;-76
2022/01/16 08:11:52;;;;;;;30.42;13.82;;;;;;;;;;5022595;28;20045;-76
2022/01/16 08:14:18;;;;;;;28.85;13.30;;;;;;;;;;5030421;28;20076;-76
2022/01/16 08:16:44;;;;;;;27.05;14.00;;;;;;;;;;5043019;28;20128;-77
2022/01/16 08:19:09;;;;;;;28.60;13.57;;;;;;;;;;5009855;28;20149;-76
2022/01/16 08:21:35;;;;;;;28.50;13.90;;;;;;;;;;5006318;28;20077;-77
2022/01/16 08:24:03;;;;;;;28.83;14.27;;;;;;;;;;4985762;28;20522;-74
2022/01/16 08:26:31;;;;;;;31.58;14.60;;;;;;;;;;5012221;28;20479;-78
2022/01/16 08:28:58;;;;;;;30.48;14.45;;;;;;;;;;5020276;28;20040;-78
2022/01/16 08:31:24;;;;;;;34.70;15.45;;;;;;;;;;5023233;28;20045;-78
2022/01/16 08:33:50;;;;;;;31.10;14.27;;;;;;;;;;5025000;28;20033;-76
2022/01/16 08:36:17;;;;;;;32.45;14.90;;;;;;;;;;5025295;28;20470;-82
2022/01/16 08:38:44;;;;;;;28.17;14.48;;;;;;;;;;5023553;28;20048;-78
2022/01/16 08:41:10;;;;;;;30.58;14.02;;;;;;;;;;5023523;28;20468;-80
2022/01/16 08:43:36;;;;;;;33.45;15.07;;;;;;;;;;5007989;28;20085;-80
2022/01/16 08:46:02;;;;;;;35.35;15.63;;;;;;;;;;4999648;28;20571;-79
2022/01/16 08:48:28;;;;;;;39.58;15.88;;;;;;;;;;5016156;28;20045;-77
2022/01/16 08:50:55;;;;;;;39.67;20.70;;;;;;;;;;5031686;28;20036;-81
2022/01/16 08:53:21;;;;;;;38.78;19.85;;;;;;;;;;5007926;28;20538;-77
2022/01/16 08:55:47;;;;;;;32.88;14.85;;;;;;;;;;4996730;28;22064;-80
2022/01/16 08:58:13;;;;;;;33.45;14.45;;;;;;;;;;5007788;28;20038;-79
2022/01/16 09:00:39;;;;;;;33.78;15.43;;;;;;;;;;5000113;28;20069;-79
2022/01/16 09:03:05;;;;;;;35.08;15.30;;;;;;;;;;4997554;28;20068;-80
2022/01/16 09:05:31;;;;;;;29.38;14.40;;;;;;;;;;4999671;28;20484;-82
2022/01/16 09:07:57;;;;;;;30.73;15.25;;;;;;;;;;5006651;28;20030;-80
2022/01/16 09:10:23;;;;;;;35.40;15.10;;;;;;;;;;5021103;28;20041;-79
2022/01/16 09:12:49;;;;;;;31.27;15.05;;;;;;;;;;5026124;28;20509;-80
2022/01/16 09:15:15;;;;;;;39.90;18.25;;;;;;;;;;5026238;28;20061;-81
2022/01/16 09:17:41;;;;;;;43.67;22.25;;;;;;;;;;5024810;28;20426;-81
2022/01/16 09:20:08;;;;;;;31.58;15.88;;;;;;;;;;5025358;28;20029;-80
2022/01/16 09:22:36;;;;;;;31.15;14.52;;;;;;;;;;5024096;28;20040;-82
2022/01/16 09:25:06;;;;;;;33.08;14.85;;;;;;;;;;5023457;28;20057;-80
2022/01/16 09:27:33;;;;;;;32.05;14.73;;;;;;;;;;5024294;28;20033;-81
2022/01/16 09:29:59;;;;;;;33.28;14.88;;;;;;;;;;5023131;28;20057;-80
2022/01/16 09:32:26;;;;;;;35.97;14.43;;;;;;;;;;5005906;28;20044;-79
2022/01/16 09:34:52;;;;;;;31.90;15.07;;;;;;;;;;5019498;28;20609;-79
2022/01/16 09:37:17;;;;;;;46.70;15.90;;;;;;;;;;5024967;28;20052;-80
2022/01/16 09:39:43;;;;;;;35.65;15.45;;;;;;;;;;5024756;28;20041;-77
2022/01/16 09:42:09;;;;;;;33.22;14.60;;;;;;;;;;5025664;28;20033;-79
2022/01/16 09:44:38;;;;;;;33.05;14.80;;;;;;;;;;5025501;28;20037;-82
2022/01/16 09:47:04;;;;;;;28.92;13.82;;;;;;;;;;5025128;28;20737;-79
2022/01/16 09:49:30;;;;;;;32.25;14.20;;;;;;;;;;5025125;28;20048;-80
2022/01/16 09:51:56;;;;;;;33.60;15.18;;;;;;;;;;5025682;28;20037;-81
2022/01/16 09:54:23;;;;;;;30.02;14.45;;;;;;;;;;5025567;28;20061;-80
2022/01/16 09:56:50;;;;;;;34.38;15.70;;;;;;;;;;5019419;28;20046;-78
2022/01/16 09:59:17;;;;;;;28.02;13.95;;;;;;;;;;5025391;28;20048;-79
2022/01/16 10:01:43;;;;;;;27.23;13.82;;;;;;;;;;5024718;28;20494;-80
2022/01/16 10:04:32;;;;;;;30.00;15.25;;;;;;;;;;5024991;28;20041;-80
2022/01/16 10:07:00;;;;;;;29.90;14.13;;;;;;;;;;5005615;28;20026;-78
2022/01/16 10:09:27;;;;;;;33.45;14.98;;;;;;;;;;4983053;28;20045;-80
2022/01/16 10:11:59;;;;;;;30.40;12.68;;;;;;;;;;5007113;28;20155;-78
2022/01/16 10:14:36;;;;;;;30.90;13.10;;;;;;;;;;5009355;28;20403;-77
2022/01/16 10:17:10;;;;;;;26.00;12.77;;;;;;;;;;5008558;28;20044;-79
2022/01/16 10:19:36;;;;;;;31.58;12.75;;;;;;;;;;5009793;28;20046;-77
2022/01/16 10:22:10;;;;;;;29.38;13.27;;;;;;;;;;5029062;28;20501;-80
2022/01/16 10:24:39;;;;;;;26.88;12.82;;;;;;;;;;5028677;28;20042;-79
2022/01/16 10:27:07;;;;;;;27.35;12.77;;;;;;;;;;5027377;28;20052;-79
2022/01/16 10:29:36;;;;;;;26.77;13.43;;;;;;;;;;5010193;28;20048;-80
2022/01/16 10:32:24;;;;;;;32.53;14.32;;;;;;;;;;5028465;28;20025;-79
2022/01/16 10:35:06;;;;;;;31.08;13.50;;;;;;;;;;5028263;28;20491;-79
2022/01/16 10:37:33;;;;;;;33.65;15.18;;;;;;;;;;5028176;28;20041;-79
2022/01/16 10:39:59;;;;;;;31.63;13.25;;;;;;;;;;5027807;28;20041;-79
2022/01/16 10:42:26;;;;;;;28.48;14.30;;;;;;;;;;5008562;28;20746;-78
2022/01/16 10:45:04;;;;;;;35.22;15.63;;;;;;;;;;5008512;28;20600;-79
2022/01/16 10:47:35;;;;;;;29.38;13.77;;;;;;;;;;5015303;28;20661;-78
2022/01/16 10:50:19;;;;;;;34.67;14.70;;;;;;;;;;5002848;28;20042;-79
2022/01/16 10:53:10;;;;;;;32.17;14.50;;;;;;;;;;5010677;28;20047;-79
2022/01/16 10:55:41;;;;;;;31.73;15.20;;;;;;;;;;5020601;28;20060;-80
2022/01/16 10:58:20;;;;;;;29.50;14.25;;;;;;;;;;5027073;28;20201;-78
2022/01/16 11:00:52;;;;;;;38.67;15.80;;;;;;;;;;5009236;28;20410;-79
2022/01/16 11:03:18;;;;;;;33.65;16.02;;;;;;;;;;5027435;28;20041;-80
2022/01/16 11:05:46;;;;;;;34.63;15.38;;;;;;;;;;5027942;28;20042;-76
2022/01/16 11:08:21;;;;;;;36.50;16.45;;;;;;;;;;5027891;28;20030;-79
2022/01/16 11:10:48;;;;;;;34.83;16.23;;;;;;;;;;5009222;28;20037;-81
2022/01/16 11:13:19;;;;;;;38.58;15.95;;;;;;;;;;5009763;28;20045;-80
2022/01/16 11:15:53;;;;;;;39.42;15.85;;;;;;;;;;5011260;28;20050;-80
2022/01/16 11:18:21;;;;;;;35.13;15.23;;;;;;;;;;5029020;28;20037;-79
2022/01/16 11:21:34;;;;;;;32.60;15.68;;;;;;;;;;5028096;28;20064;-79
2022/01/16 11:26:27;;;;;;;35.95;16.33;;;;;;;;;;5027151;28;20041;-79
2022/01/16 11:28:57;;;;;;;37.92;16.25;;;;;;;;;;5026436;28;20105;-77
2022/01/16 11:31:23;;;;;;;36.47;15.00;;;;;;;;;;5024908;28;20029;-81
2022/01/16 11:39:05;;;;;;;32.00;14.77;;;;;;;;;;6142202;22;20003;-78
2022/01/16 11:41:36;;;;;;;33.35;15.38;;;;;;;;;;5043662;23;20057;-78
2022/01/16 11:44:23;;;;;;;32.58;15.07;;;;;;;;;;5023324;28;20041;-76
2022/01/16 11:46:51;;;;;;;35.45;15.30;;;;;;;;;;5003752;28;20035;-75
2022/01/16 11:49:30;;;;;;;33.97;14.75;;;;;;;;;;4996324;28;20034;-76
2022/01/16 11:52:02;;;;;;;34.22;14.98;;;;;;;;;;4985343;28;20034;-76
2022/01/16 11:54:37;;;;;;;35.45;15.30;;;;;;;;;;5002637;28;20053;-77
2022/01/16 11:57:22;;;;;;;32.40;15.40;;;;;;;;;;4994251;28;20494;-78
2022/01/16 11:59:52;;;;;;;31.23;14.48;;;;;;;;;;4971103;28;20479;-79
2022/01/16 12:02:21;;;;;;;31.98;14.90;;;;;;;;;;4981985;28;20038;-77
2022/01/16 12:04:49;;;;;;;35.25;16.13;;;;;;;;;;4983477;28;20051;-77
2022/01/16 12:07:17;;;;;;;41.63;17.15;;;;;;;;;;4982680;28;20423;-77
2022/01/16 12:09:53;;;;;;;31.17;13.80;;;;;;;;;;4943864;28;20050;-77
2022/01/16 12:12:19;;;;;;;30.20;14.02;;;;;;;;;;4960868;28;20195;-78
2022/01/16 12:15:08;;;;;;;31.40;14.88;;;;;;;;;;4995156;28;20474;-78
2022/01/16 12:17:46;;;;;;;31.77;14.13;;;;;;;;;;5001933;28;20038;-79
2022/01/16 12:20:18;;;;;;;26.77;12.75;;;;;;;;;;4984836;28;20034;-78
2022/01/16 12:22:55;;;;;;;29.08;13.52;;;;;;;;;;4982517;28;20034;-78
2022/01/16 12:25:45;;;;;;;31.15;14.00;;;;;;;;;;5013073;28;20034;-78
2022/01/16 12:28:10;;;;;;;29.17;13.73;;;;;;;;;;5018617;28;20042;-79
2022/01/16 12:30:51;;;;;;;27.38;13.23;;;;;;;;;;5023076;28;20069;-78
2022/01/16 12:33:35;;;;;;;28.10;12.02;;;;;;;;;;5017133;28;20057;-78
2022/01/16 12:36:11;;;;;;;28.48;13.80;;;;;;;;;;5001643;28;20034;-77
2022/01/16 12:38:42;;;;;;;25.45;12.15;;;;;;;;;;5024894;28;20088;-77
2022/01/16 12:41:17;;;;;;;27.63;12.77;;;;;;;;;;5022138;28;20678;-79
2022/01/16 12:43:59;;;;;;;30.63;13.20;;;;;;;;;;5045363;28;20425;-77
2022/01/16 12:46:27;;;;;;;28.33;13.45;;;;;;;;;;5037331;28;20052;-78
2022/01/16 12:48:59;;;;;;;28.63;13.25;;;;;;;;;;5014850;28;20030;-79
2022/01/16 12:51:27;;;;;;;32.80;14.98;;;;;;;;;;5033174;28;21287;-78
2022/01/16 12:54:07;;;;;;;28.63;13.35;;;;;;;;;;5034082;28;20029;-78
2022/01/16 12:56:34;;;;;;;29.35;13.57;;;;;;;;;;5035142;28;20036;-76
2022/01/16 12:59:12;;;;;;;29.13;13.23;;;;;;;;;;5035436;28;20503;-77
2022/01/16 13:01:52;;;;;;;26.35;12.85;;;;;;;;;;5017157;28;20045;-80
2022/01/16 13:04:45;;;;;;;25.40;12.88;;;;;;;;;;5032937;28;20043;-78
2022/01/16 13:07:15;;;;;;;25.58;12.60;;;;;;;;;;5031760;28;20053;-79
2022/01/16 13:09:42;;;;;;;27.92;12.95;;;;;;;;;;5017279;28;20044;-77
2022/01/16 13:12:12;;;;;;;26.70;12.55;;;;;;;;;;5031452;28;20113;-77
2022/01/16 13:14:41;;;;;;;27.65;12.98;;;;;;;;;;5028589;28;20443;-77
2022/01/16 13:17:11;;;;;;;29.17;12.57;;;;;;;;;;5037210;28;20067;-79
2022/01/16 13:20:02;;;;;;;26.65;12.85;;;;;;;;;;5044398;28;20040;-78
2022/01/16 13:22:26;;;;;;;22.92;11.80;;;;;;;;;;5043817;28;20386;-79
2022/01/16 13:24:55;;;;;;;24.08;12.00;;;;;;;;;;5042739;28;20662;-77
2022/01/16 13:27:26;;;;;;;25.80;12.68;;;;;;;;;;5042932;28;20036;-80
2022/01/16 13:29:57;;;;;;;;;;;;;;;;;;5025616;28;20049;-77
2022/01/16 13:32:31;;;;;;;25.88;12.80;;;;;;;;;;5030827;28;19925;-77
2022/01/16 13:34:58;;;;;;;26.60;13.45;;;;;;;;;;5022926;28;20041;-79
2022/01/16 13:37:35;;;;;;;23.63;12.40;;;;;;;;;;5041555;28;20513;-77
2022/01/16 13:40:06;;;;;;;22.38;11.10;;;;;;;;;;5023669;28;20059;-78
2022/01/16 13:45:16;;;;;;;25.50;13.43;;;;;;;;;;5043807;28;20105;-78
2022/01/16 13:48:10;;;;;;;24.50;12.35;;;;;;;;;;5046387;28;20040;-78
2022/01/16 13:50:49;;;;;;;26.55;12.60;;;;;;;;;;4997405;28;20064;-79
2022/01/16 13:53:21;;;;;;;24.50;11.88;;;;;;;;;;5044465;28;20041;-78
2022/01/16 13:55:50;;;;;;;25.40;11.82;;;;;;;;;;5045691;28;20386;-79
2022/01/16 13:58:19;;;;;;;26.90;12.75;;;;;;;;;;5029374;28;20154;-79
2022/01/16 14:00:45;;;;;;;26.30;11.57;;;;;;;;;;5029633;28;20041;-78
2022/01/16 14:03:14;;;;;;;27.77;12.15;;;;;;;;;;5045831;28;20048;-79
2022/01/16 14:05:49;;;;;;;27.58;12.65;;;;;;;;;;5047069;28;20028;-79
2022/01/16 14:08:23;;;;;;;25.20;12.68;;;;;;;;;;5048500;28;20029;-79
2022/01/16 14:10:51;;;;;;;34.00;16.75;;;;;;;;;;5029254;28;20056;-78
2022/01/16 14:13:17;;;;;;;33.42;15.43;;;;;;;;;;5047502;28;20494;-80
2022/01/16 14:16:13;;;;;;;25.77;12.57;;;;;;;;;;5046629;28;20491;-79
2022/01/16 14:19:04;;;;;;;26.88;13.23;;;;;;;;;;5028443;28;20056;-80
2022/01/16 14:24:07;;;;;;;25.60;12.32;;;;;;;;;;5047889;28;20032;-79
2022/01/16 14:26:45;;;;;;;27.58;13.10;;;;;;;;;;5047747;28;20421;-78
2022/01/16 14:29:13;;;;;;;29.00;14.05;;;;;;;;;;5029117;28;20517;-79
2022/01/16 14:31:39;;;;;;;27.85;13.23;;;;;;;;;;5028946;28;20494;-80
2022/01/16 14:34:05;;;;;;;30.52;14.65;;;;;;;;;;5032944;28;20052;-79
2022/01/16 14:36:31;;;;;;;28.08;14.50;;;;;;;;;;5039209;28;20037;-80
2022/01/16 14:38:56;;;;;;;31.33;15.35;;;;;;;;;;5025116;28;20061;-78
2022/01/16 14:41:23;;;;;;;27.88;14.63;;;;;;;;;;5041750;28;20083;-79
2022/01/16 14:43:54;;;;;;;29.77;14.80;;;;;;;;;;5042822;28;20487;-79
2022/01/16 14:46:22;;;;;;;32.00;15.50;;;;;;;;;;5042855;28;20056;-80
2022/01/16 14:48:50;;;;;;;32.17;15.23;;;;;;;;;;5028819;28;20041;-79
2022/01/16 14:51:19;;;;;;;30.00;15.68;;;;;;;;;;5043642;28;20041;-79
2022/01/16 14:53:45;;;;;;;32.13;15.88;;;;;;;;;;5031149;28;20108;-79
2022/01/16 14:56:13;;;;;;;31.33;15.52;;;;;;;;;;5044897;28;20080;-79
2022/01/16 14:58:40;;;;;;;30.85;15.10;;;;;;;;;;5042196;28;20060;-79
2022/01/16 15:01:08;;;;;;;30.85;15.50;;;;;;;;;;5041927;28;20386;-78
2022/01/16 15:03:35;;;;;;;32.95;14.98;;;;;;;;;;5028503;28;20044;-78
2022/01/16 15:06:06;;;;;;;33.78;15.73;;;;;;;;;;5043216;28;20471;-79
2022/01/16 15:08:34;;;;;;;35.90;15.20;;;;;;;;;;5045226;28;20052;-79
2022/01/16 15:11:00;;;;;;;33.58;16.88;;;;;;;;;;5026395;28;20124;-78
2022/01/16 15:13:26;;;;;;;31.83;16.10;;;;;;;;;;5028276;28;20060;-78
2022/01/16 15:15:52;;;;;;;37.10;17.05;;;;;;;;;;5042616;28;20091;-78
2022/01/16 15:18:20;;;;;;;37.33;17.50;;;;;;;;;;5041703;28;20498;-78
2022/01/16 15:20:50;;;;;;;34.13;15.82;;;;;;;;;;5028680;28;20052;-79
2022/01/16 15:23:16;;;;;;;36.67;17.23;;;;;;;;;;5042800;28;20386;-78
2022/01/16 15:25:44;;;;;;;38.35;18.40;;;;;;;;;;5042306;28;20052;-78
2022/01/16 15:28:11;;;;;;;68.05;31.92;;;;;;;;;;5042109;28;20057;-78
2022/01/16 15:30:37;;;;;;;41.47;20.70;;;;;;;;;;5029097;28;20045;-79
2022/01/16 15:33:03;;;;;;;39.70;19.38;;;;;;;;;;5034670;28;20037;-78
2022/01/16 15:35:30;;;;;;;37.42;17.50;;;;;;;;;;5037781;28;20049;-78
2022/01/16 15:37:56;;;;;;;35.25;17.50;;;;;;;;;;5042477;28;20032;-77
2022/01/16 15:40:22;;;;;;;37.13;16.63;;;;;;;;;;5030558;28;20071;-76
2022/01/16 15:42:50;;;;;;;40.40;18.15;;;;;;;;;;5044837;28;20041;-75
2022/01/16 15:45:15;;;;;;;38.42;18.33;;;;;;;;;;5032591;28;20392;-82
2022/01/16 15:47:46;;;;;;;39.45;18.38;;;;;;;;;;5031081;28;20036;-77
2022/01/16 15:50:12;;;;;;;40.20;18.92;;;;;;;;;;5033168;28;20032;-80
2022/01/16 15:52:38;;;;;;;37.90;16.88;;;;;;;;;;5032082;28;20029;-81
2022/01/16 15:55:05;;;;;;;38.65;17.45;;;;;;;;;;5034041;28;20037;-82
2022/01/16 15:57:31;;;;;;;37.17;17.52;;;;;;;;;;5021829;28;20033;-82